createdAt,value
2018-11-12T00:00:54.332Z,1011.90
2018-11-12T00:01:54.307Z,1011.90
2018-11-12T00:02:54.288Z,1011.93
2018-11-12T00:03:54.270Z,1011.89
2018-11-12T00:04:54.293Z,1011.88
2018-11-12T00:05:54.228Z,1011.86
2018-11-12T00:06:54.211Z,1011.89
2018-11-12T00:07:54.193Z,1011.91
2018-11-12T00:08:54.173Z,1011.85
2018-11-12T00:09:54.142Z,1011.86
2018-11-12T00:10:54.137Z,1011.86
2018-11-12T00:11:54.106Z,1011.88
2018-11-12T00:12:54.090Z,1011.93
2018-11-12T00:13:54.072Z,1011.85
2018-11-12T00:14:54.053Z,1011.83
2018-11-12T00:15:54.036Z,1011.79
2018-11-12T00:16:54.011Z,1011.77
2018-11-12T00:17:53.984Z,1011.76
2018-11-12T00:18:53.978Z,1011.77
2018-11-12T00:19:53.948Z,1011.79
2018-11-12T00:20:53.936Z,1011.79
2018-11-12T00:21:53.998Z,1011.78
2018-11-12T00:22:53.897Z,1011.74
2018-11-12T00:23:53.882Z,1011.80
2018-11-12T00:24:53.853Z,1011.85
2018-11-12T00:25:53.833Z,1011.85
2018-11-12T00:26:53.812Z,1011.83
2018-11-12T00:27:53.796Z,1011.86
2018-11-12T00:28:53.772Z,1011.79
2018-11-12T00:29:53.756Z,1011.89
2018-11-12T00:30:53.740Z,1011.91
2018-11-12T00:31:53.725Z,1011.86
2018-11-12T00:32:53.702Z,1011.87
2018-11-12T00:33:53.685Z,1011.87
2018-11-12T00:34:53.655Z,1011.88
2018-11-12T00:35:53.641Z,1011.82
2018-11-12T00:36:53.617Z,1011.84
2018-11-12T00:37:53.599Z,1011.85
2018-11-12T00:38:53.581Z,1011.92
2018-11-12T00:39:53.555Z,1011.98
2018-11-12T00:40:53.541Z,1011.96
2018-11-12T00:41:53.532Z,1011.94
2018-11-12T00:42:53.501Z,1011.92
2018-11-12T00:43:53.486Z,1011.94
2018-11-12T00:44:53.465Z,1011.90
2018-11-12T00:45:53.444Z,1011.91
2018-11-12T00:46:53.421Z,1011.85
2018-11-12T00:47:53.402Z,1011.86
2018-11-12T00:48:53.377Z,1011.85
2018-11-12T00:49:53.356Z,1011.87
2018-11-12T00:50:53.344Z,1011.88
2018-11-12T00:51:53.323Z,1011.87
2018-11-12T00:52:53.292Z,1011.89
2018-11-12T00:53:53.289Z,1011.93
2018-11-12T00:54:53.265Z,1012.02
2018-11-12T00:55:53.240Z,1012.06
2018-11-12T00:56:53.227Z,1012.15
2018-11-12T00:57:53.197Z,1012.19
2018-11-12T00:58:53.179Z,1012.31
2018-11-12T00:59:53.163Z,1012.42
2018-11-12T01:00:53.148Z,1012.48
2018-11-12T01:01:53.129Z,1012.59
2018-11-12T01:02:53.108Z,1012.73
2018-11-12T01:03:53.098Z,1012.75
2018-11-12T01:04:53.061Z,1012.72
2018-11-12T01:05:53.040Z,1012.62
2018-11-12T01:06:53.023Z,1012.56
2018-11-12T01:07:53.007Z,1012.47
2018-11-12T01:08:52.989Z,1012.45
2018-11-12T01:09:52.959Z,1012.44
2018-11-12T01:10:52.953Z,1012.45
2018-11-12T01:11:52.930Z,1012.47
2018-11-12T01:12:52.916Z,1012.40
2018-11-12T01:13:52.890Z,1012.43
2018-11-12T01:14:52.869Z,1012.46
2018-11-12T01:15:52.849Z,1012.43
2018-11-12T01:16:52.836Z,1012.45
2018-11-12T01:17:52.812Z,1012.43
2018-11-12T01:18:52.795Z,1012.44
2018-11-12T01:19:52.771Z,1012.46
2018-11-12T01:20:52.746Z,1012.39
2018-11-12T01:21:52.734Z,1012.44
2018-11-12T01:22:52.714Z,1012.49
2018-11-12T01:23:52.696Z,1012.42
2018-11-12T01:24:52.679Z,1012.40
2018-11-12T01:25:52.659Z,1012.42
2018-11-12T01:26:52.636Z,1012.46
2018-11-12T01:27:52.617Z,1012.45
2018-11-12T01:28:52.597Z,1012.42
2018-11-12T01:29:52.577Z,1012.40
2018-11-12T01:30:52.555Z,1012.39
2018-11-12T01:31:52.541Z,1012.38
2018-11-12T01:32:52.516Z,1012.33
2018-11-12T01:33:52.502Z,1012.29
2018-11-12T01:34:52.483Z,1012.36
2018-11-12T01:35:52.458Z,1012.39
2018-11-12T01:36:52.444Z,1012.39
2018-11-12T01:37:52.417Z,1012.39
2018-11-12T01:38:52.406Z,1012.43
2018-11-12T01:39:52.380Z,1012.41
2018-11-12T01:40:52.362Z,1012.42
2018-11-12T01:41:52.392Z,1012.44
2018-11-12T01:42:52.319Z,1012.43
2018-11-12T01:43:52.306Z,1012.47
2018-11-12T01:44:52.288Z,1012.49
2018-11-12T01:45:52.266Z,1012.50
2018-11-12T01:46:52.244Z,1012.50
2018-11-12T01:47:52.227Z,1012.53
2018-11-12T01:48:52.207Z,1012.55
2018-11-12T01:49:52.186Z,1012.51
2018-11-12T01:50:52.167Z,1012.47
2018-11-12T01:51:52.149Z,1012.50
2018-11-12T01:52:52.126Z,1012.60
2018-11-12T01:53:52.118Z,1012.66
2018-11-12T01:54:52.089Z,1012.69
2018-11-12T01:55:52.068Z,1012.69
2018-11-12T01:56:52.048Z,1012.65
2018-11-12T01:57:52.028Z,1012.70
2018-11-12T01:58:52.010Z,1012.71
2018-11-12T01:59:51.993Z,1012.65
2018-11-12T02:00:51.967Z,1012.63
2018-11-12T02:01:52.029Z,1012.65
2018-11-12T02:02:51.948Z,1012.71
2018-11-12T02:03:51.921Z,1012.73
2018-11-12T02:04:52.021Z,1012.71
2018-11-12T02:05:51.876Z,1012.70
2018-11-12T02:06:51.853Z,1012.69
2018-11-12T02:07:51.837Z,1012.66
2018-11-12T02:08:51.876Z,1012.60
2018-11-12T02:09:51.796Z,1012.58
2018-11-12T02:10:51.780Z,1012.59
2018-11-12T02:11:51.756Z,1012.58
2018-11-12T02:12:51.750Z,1012.57
2018-11-12T02:13:51.714Z,1012.57
2018-11-12T02:14:51.696Z,1012.58
2018-11-12T02:15:51.685Z,1012.52
2018-11-12T02:16:51.660Z,1012.58
2018-11-12T02:17:51.642Z,1012.49
2018-11-12T02:18:51.619Z,1012.49
2018-11-12T02:19:51.599Z,1012.45
2018-11-12T02:20:51.584Z,1012.44
2018-11-12T02:21:51.558Z,1012.45
2018-11-12T02:22:51.557Z,1012.44
2018-11-12T02:23:51.522Z,1012.49
2018-11-12T02:24:51.502Z,1012.48
2018-11-12T02:25:51.484Z,1012.38
2018-11-12T02:26:51.464Z,1012.43
2018-11-12T02:27:51.447Z,1012.37
2018-11-12T02:28:51.420Z,1012.42
2018-11-12T02:29:51.403Z,1012.43
2018-11-12T02:30:51.388Z,1012.42
2018-11-12T02:31:51.366Z,1012.42
2018-11-12T02:32:51.347Z,1012.47
2018-11-12T02:33:51.321Z,1012.51
2018-11-12T02:34:51.304Z,1012.59
2018-11-12T02:35:51.301Z,1012.61
2018-11-12T02:36:51.269Z,1012.62
2018-11-12T02:37:51.245Z,1012.61
2018-11-12T02:38:51.225Z,1012.60
2018-11-12T02:39:51.208Z,1012.64
2018-11-12T02:40:51.185Z,1012.61
2018-11-12T02:41:51.172Z,1012.69
2018-11-12T02:42:51.150Z,1012.63
2018-11-12T02:43:51.134Z,1012.64
2018-11-12T02:44:51.105Z,1012.66
2018-11-12T02:45:51.097Z,1012.59
2018-11-12T02:46:51.076Z,1012.57
2018-11-12T02:47:51.051Z,1012.51
2018-11-12T02:48:51.030Z,1012.48
2018-11-12T02:49:51.014Z,1012.44
2018-11-12T02:50:50.999Z,1012.39
2018-11-12T02:51:50.972Z,1012.41
2018-11-12T02:52:50.949Z,1012.39
2018-11-12T02:53:50.933Z,1012.39
2018-11-12T02:54:50.920Z,1012.37
2018-11-12T02:55:50.891Z,1012.41
2018-11-12T02:56:50.875Z,1012.41
2018-11-12T02:57:50.853Z,1012.46
2018-11-12T02:58:50.833Z,1012.51
2018-11-12T02:59:50.812Z,1012.47
2018-11-12T03:00:50.795Z,1012.43
2018-11-12T03:01:50.774Z,1012.39
2018-11-12T03:02:50.760Z,1012.39
2018-11-12T03:03:50.733Z,1012.36
2018-11-12T03:04:50.716Z,1012.39
2018-11-12T03:05:50.693Z,1012.39
2018-11-12T03:06:50.674Z,1012.33
2018-11-12T03:07:50.659Z,1012.33
2018-11-12T03:08:50.633Z,1012.35
2018-11-12T03:09:50.618Z,1012.43
2018-11-12T03:10:50.592Z,1012.38
2018-11-12T03:11:50.575Z,1012.38
2018-11-12T03:12:50.558Z,1012.38
2018-11-12T03:13:50.557Z,1012.33
2018-11-12T03:14:50.520Z,1012.32
2018-11-12T03:15:50.498Z,1012.32
2018-11-12T03:16:50.476Z,1012.32
2018-11-12T03:17:50.464Z,1012.39
2018-11-12T03:18:50.436Z,1012.43
2018-11-12T03:19:50.411Z,1012.47
2018-11-12T03:20:50.395Z,1012.46
2018-11-12T03:21:50.373Z,1012.45
2018-11-12T03:22:50.359Z,1012.42
2018-11-12T03:23:50.339Z,1012.42
2018-11-12T03:24:50.321Z,1012.47
2018-11-12T03:25:50.300Z,1012.42
2018-11-12T03:26:50.288Z,1012.40
2018-11-12T03:27:50.333Z,1012.42
2018-11-12T03:28:50.235Z,1012.37
2018-11-12T03:29:50.215Z,1012.35
2018-11-12T03:30:50.194Z,1012.36
2018-11-12T03:31:50.185Z,1012.28
2018-11-12T03:32:50.155Z,1012.37
2018-11-12T03:33:50.142Z,1012.31
2018-11-12T03:34:50.122Z,1012.36
2018-11-12T03:35:50.097Z,1012.39
2018-11-12T03:36:50.091Z,1012.34
2018-11-12T03:37:50.062Z,1012.31
2018-11-12T03:38:50.039Z,1012.24
2018-11-12T03:39:50.134Z,1012.24
2018-11-12T03:40:49.995Z,1012.23
2018-11-12T03:41:49.975Z,1012.19
2018-11-12T03:42:49.957Z,1012.19
2018-11-12T03:43:49.935Z,1012.20
2018-11-12T03:44:49.921Z,1012.13
2018-11-12T03:45:49.898Z,1012.11
2018-11-12T03:46:49.884Z,1012.23
2018-11-12T03:47:49.857Z,1012.24
2018-11-12T03:48:49.836Z,1012.27
2018-11-12T03:49:49.820Z,1012.27
2018-11-12T03:50:49.800Z,1012.28
2018-11-12T03:51:49.779Z,1012.22
2018-11-12T03:52:49.750Z,1012.25
2018-11-12T03:53:49.741Z,1012.26
2018-11-12T03:54:49.714Z,1012.29
2018-11-12T03:55:49.698Z,1012.28
2018-11-12T03:56:49.676Z,1012.30
2018-11-12T03:57:49.664Z,1012.28
2018-11-12T03:58:49.633Z,1012.26
2018-11-12T03:59:49.616Z,1012.28
2018-11-12T04:00:49.597Z,1012.29
2018-11-12T04:01:49.579Z,1012.28
2018-11-12T04:02:49.560Z,1012.26
2018-11-12T04:03:49.532Z,1012.29
2018-11-12T04:04:49.517Z,1012.29
2018-11-12T04:05:49.496Z,1012.35
2018-11-12T04:06:49.475Z,1012.32
2018-11-12T04:07:49.459Z,1012.32
2018-11-12T04:08:49.433Z,1012.35
2018-11-12T04:09:49.426Z,1012.36
2018-11-12T04:10:49.399Z,1012.39
2018-11-12T04:11:49.380Z,1012.38
2018-11-12T04:12:49.354Z,1012.41
2018-11-12T04:13:49.338Z,1012.45
2018-11-12T04:14:49.317Z,1012.40
2018-11-12T04:15:49.292Z,1012.42
2018-11-12T04:16:49.270Z,1012.38
2018-11-12T04:17:49.259Z,1012.42
2018-11-12T04:18:49.236Z,1012.37
2018-11-12T04:19:49.216Z,1012.41
2018-11-12T04:20:49.196Z,1012.40
2018-11-12T04:21:49.177Z,1012.41
2018-11-12T04:22:49.161Z,1012.41
2018-11-12T04:23:49.137Z,1012.39
2018-11-12T04:24:49.115Z,1012.41
2018-11-12T04:25:49.101Z,1012.38
2018-11-12T04:26:49.078Z,1012.41
2018-11-12T04:27:49.056Z,1012.36
2018-11-12T04:28:49.040Z,1012.38
2018-11-12T04:29:49.010Z,1012.40
2018-11-12T04:30:48.998Z,1012.38
2018-11-12T04:31:48.985Z,1012.43
2018-11-12T04:32:48.953Z,1012.44
2018-11-12T04:33:48.937Z,1012.46
2018-11-12T04:34:48.916Z,1012.47
2018-11-12T04:35:48.898Z,1012.43
2018-11-12T04:36:48.876Z,1012.47
2018-11-12T04:37:48.851Z,1012.43
2018-11-12T04:38:48.836Z,1012.43
2018-11-12T04:39:48.817Z,1012.43
2018-11-12T04:40:48.794Z,1012.43
2018-11-12T04:41:48.774Z,1012.41
2018-11-12T04:42:48.756Z,1012.47
2018-11-12T04:43:48.734Z,1012.47
2018-11-12T04:44:48.710Z,1012.44
2018-11-12T04:45:48.693Z,1012.47
2018-11-12T04:46:48.680Z,1012.50
2018-11-12T04:47:48.656Z,1012.50
2018-11-12T04:48:48.634Z,1012.52
2018-11-12T04:49:48.618Z,1012.56
2018-11-12T04:50:48.599Z,1012.51
2018-11-12T04:51:48.575Z,1012.46
2018-11-12T04:52:48.554Z,1012.48
2018-11-12T04:53:48.636Z,1012.45
2018-11-12T04:54:48.524Z,1012.44
2018-11-12T04:55:48.493Z,1012.45
2018-11-12T04:56:48.473Z,1012.46
2018-11-12T04:57:48.454Z,1012.53
2018-11-12T04:58:48.434Z,1012.54
2018-11-12T04:59:48.416Z,1012.54
2018-11-12T05:00:48.394Z,1012.58
2018-11-12T05:01:48.397Z,1012.51
2018-11-12T05:02:48.354Z,1012.53
2018-11-12T05:03:48.339Z,1012.55
2018-11-12T05:04:48.319Z,1012.53
2018-11-12T05:05:48.292Z,1012.54
2018-11-12T05:06:48.272Z,1012.54
2018-11-12T05:07:48.272Z,1012.53
2018-11-12T05:08:48.230Z,1012.53
2018-11-12T05:09:48.220Z,1012.54
2018-11-12T05:10:48.192Z,1012.54
2018-11-12T05:11:48.174Z,1012.58
2018-11-12T05:12:48.158Z,1012.56
2018-11-12T05:13:48.132Z,1012.57
2018-11-12T05:14:48.114Z,1012.64
2018-11-12T05:15:48.096Z,1012.55
2018-11-12T05:16:48.155Z,1012.53
2018-11-12T05:17:48.056Z,1012.59
2018-11-12T05:18:48.036Z,1012.54
2018-11-12T05:19:48.018Z,1012.52
2018-11-12T05:20:47.998Z,1012.52
2018-11-12T05:21:47.976Z,1012.55
2018-11-12T05:22:47.956Z,1012.54
2018-11-12T05:23:47.939Z,1012.59
2018-11-12T05:24:47.922Z,1012.54
2018-11-12T05:25:47.894Z,1012.55
2018-11-12T05:26:47.876Z,1012.54
2018-11-12T05:27:47.857Z,1012.56
2018-11-12T05:28:47.832Z,1012.51
2018-11-12T05:29:47.813Z,1012.51
2018-11-12T05:30:47.794Z,1012.50
2018-11-12T05:31:47.779Z,1012.48
2018-11-12T05:32:47.761Z,1012.49
2018-11-12T05:33:47.735Z,1012.47
2018-11-12T05:34:47.718Z,1012.49
2018-11-12T05:35:47.696Z,1012.54
2018-11-12T05:36:47.676Z,1012.52
2018-11-12T05:37:47.747Z,1012.58
2018-11-12T05:38:47.634Z,1012.58
2018-11-12T05:39:47.615Z,1012.57
2018-11-12T05:40:47.593Z,1012.60
2018-11-12T05:41:47.579Z,1012.61
2018-11-12T05:42:47.555Z,1012.63
2018-11-12T05:43:47.537Z,1012.65
2018-11-12T05:44:47.519Z,1012.69
2018-11-12T05:45:47.497Z,1012.69
2018-11-12T05:46:47.484Z,1012.73
2018-11-12T05:47:47.456Z,1012.80
2018-11-12T05:48:47.435Z,1012.80
2018-11-12T05:49:47.418Z,1012.79
2018-11-12T05:50:47.395Z,1012.80
2018-11-12T05:51:47.376Z,1012.82
2018-11-12T05:52:47.355Z,1012.81
2018-11-12T05:53:47.334Z,1012.88
2018-11-12T05:54:47.315Z,1012.87
2018-11-12T05:55:47.299Z,1012.86
2018-11-12T05:56:47.276Z,1012.94
2018-11-12T05:57:47.259Z,1012.96
2018-11-12T05:58:47.247Z,1012.95
2018-11-12T05:59:47.216Z,1012.97
2018-11-12T06:00:47.194Z,1012.98
2018-11-12T06:01:47.174Z,1012.99
2018-11-12T06:02:47.153Z,1013.00
2018-11-12T06:03:47.144Z,1012.97
2018-11-12T06:04:47.173Z,1013.00
2018-11-12T06:05:47.099Z,1013.00
2018-11-12T06:06:47.071Z,1013.05
2018-11-12T06:07:47.068Z,1013.04
2018-11-12T06:08:47.041Z,1013.08
2018-11-12T06:09:47.018Z,1013.07
2018-11-12T06:10:46.996Z,1013.03
2018-11-12T06:11:46.976Z,1013.03
2018-11-12T06:12:46.967Z,1013.04
2018-11-12T06:13:46.937Z,1013.03
2018-11-12T06:14:46.916Z,1013.07
2018-11-12T06:15:46.897Z,1013.09
2018-11-12T06:16:46.874Z,1013.17
2018-11-12T06:17:46.855Z,1013.17
2018-11-12T06:18:46.835Z,1013.17
2018-11-12T06:19:46.818Z,1013.19
2018-11-12T06:20:46.801Z,1013.18
2018-11-12T06:21:46.778Z,1013.17
2018-11-12T06:22:46.837Z,1013.20
2018-11-12T06:23:46.737Z,1013.20
2018-11-12T06:24:46.715Z,1013.21
2018-11-12T06:25:46.697Z,1013.25
2018-11-12T06:26:46.675Z,1013.27
2018-11-12T06:27:46.653Z,1013.22
2018-11-12T06:28:46.639Z,1013.20
2018-11-12T06:29:46.614Z,1013.19
2018-11-12T06:30:46.597Z,1013.15
2018-11-12T06:31:46.574Z,1013.15
2018-11-12T06:32:46.557Z,1013.13
2018-11-12T06:33:46.538Z,1013.18
2018-11-12T06:34:46.514Z,1013.22
2018-11-12T06:35:46.499Z,1013.22
2018-11-12T06:36:46.558Z,1013.18
2018-11-12T06:37:46.459Z,1013.18
2018-11-12T06:38:46.436Z,1013.15
2018-11-12T06:39:46.412Z,1013.19
2018-11-12T06:40:46.401Z,1013.20
2018-11-12T06:41:46.376Z,1013.21
2018-11-12T06:42:46.472Z,1013.22
2018-11-12T06:43:46.335Z,1013.23
2018-11-12T06:44:46.318Z,1013.17
2018-11-12T06:45:46.297Z,1013.20
2018-11-12T06:46:46.271Z,1013.20
2018-11-12T06:47:46.257Z,1013.21
2018-11-12T06:48:46.235Z,1013.22
2018-11-12T06:49:46.215Z,1013.29
2018-11-12T06:50:46.197Z,1013.27
2018-11-12T06:51:46.177Z,1013.28
2018-11-12T06:52:46.218Z,1013.31
2018-11-12T06:53:46.140Z,1013.33
2018-11-12T06:54:46.123Z,1013.34
2018-11-12T06:55:46.098Z,1013.38
2018-11-12T06:56:46.123Z,1013.43
2018-11-12T06:57:46.055Z,1013.54
2018-11-12T06:58:46.039Z,1013.53
2018-11-12T06:59:46.016Z,1013.57
2018-11-12T07:00:46.032Z,1013.56
2018-11-12T07:01:45.980Z,1013.58
2018-11-12T07:02:45.957Z,1013.54
2018-11-12T07:03:45.942Z,1013.52
2018-11-12T07:04:45.916Z,1013.53
2018-11-12T07:05:45.895Z,1013.50
2018-11-12T07:06:45.890Z,1013.52
2018-11-12T07:07:46.015Z,1013.51
2018-11-12T07:08:45.842Z,1013.52
2018-11-12T07:09:45.816Z,1013.49
2018-11-12T07:10:45.798Z,1013.47
2018-11-12T07:11:45.784Z,1013.49
2018-11-12T07:12:45.753Z,1013.53
2018-11-12T07:13:45.739Z,1013.51
2018-11-12T07:14:45.720Z,1013.46
2018-11-12T07:15:45.696Z,1013.49
2018-11-12T07:16:45.676Z,1013.48
2018-11-12T07:17:45.660Z,1013.50
2018-11-12T07:18:45.665Z,1013.47
2018-11-12T07:19:45.625Z,1013.50
2018-11-12T07:20:45.595Z,1013.47
2018-11-12T07:21:45.578Z,1013.47
2018-11-12T07:22:45.560Z,1013.50
2018-11-12T07:23:45.536Z,1013.48
2018-11-12T07:24:45.518Z,1013.49
2018-11-12T07:25:45.495Z,1013.46
2018-11-12T07:26:45.480Z,1013.54
2018-11-12T07:27:45.458Z,1013.52
2018-11-12T07:28:45.441Z,1013.49
2018-11-12T07:29:45.419Z,1013.46
2018-11-12T07:30:45.466Z,1013.46
2018-11-12T07:31:45.379Z,1013.38
2018-11-12T07:32:45.363Z,1013.34
2018-11-12T07:33:45.341Z,1013.37
2018-11-12T07:34:45.322Z,1013.32
2018-11-12T07:35:45.302Z,1013.31
2018-11-12T07:36:45.283Z,1013.31
2018-11-12T07:37:45.269Z,1013.30
2018-11-12T07:38:45.244Z,1013.30
2018-11-12T07:39:45.228Z,1013.24
2018-11-12T07:40:45.206Z,1013.23
2018-11-12T07:41:45.214Z,1013.24
2018-11-12T07:42:45.172Z,1013.25
2018-11-12T07:43:45.148Z,1013.24
2018-11-12T07:44:45.131Z,1013.29
2018-11-12T07:45:45.109Z,1013.40
2018-11-12T07:46:45.094Z,1013.42
2018-11-12T07:47:45.070Z,1013.43
2018-11-12T07:48:45.094Z,1013.49
2018-11-12T07:49:45.032Z,1013.60
2018-11-12T07:50:45.024Z,1013.64
2018-11-12T07:51:45.005Z,1013.64
2018-11-12T07:52:44.976Z,1013.73
2018-11-12T07:53:44.959Z,1013.76
2018-11-12T07:54:44.950Z,1013.76
2018-11-12T07:55:44.931Z,1013.73
2018-11-12T07:56:44.905Z,1013.73
2018-11-12T07:57:44.890Z,1013.81
2018-11-12T07:58:44.870Z,1013.78
2018-11-12T07:59:44.854Z,1013.82
2018-11-12T08:00:44.846Z,1013.86
2018-11-12T08:01:44.814Z,1013.94
2018-11-12T08:02:44.852Z,1014.03
2018-11-12T08:03:44.893Z,1013.99
2018-11-12T08:04:44.760Z,1014.00
2018-11-12T08:05:44.740Z,1013.96
2018-11-12T08:06:44.729Z,1013.95
2018-11-12T08:07:44.706Z,1013.94
2018-11-12T08:08:44.696Z,1013.94
2018-11-12T08:09:44.818Z,1013.97
2018-11-12T08:10:44.656Z,1013.95
2018-11-12T08:11:44.669Z,1013.89
2018-11-12T08:12:44.618Z,1013.87
2018-11-12T08:13:44.601Z,1013.85
2018-11-12T08:14:44.714Z,1013.78
2018-11-12T08:15:44.566Z,1013.76
2018-11-12T08:16:44.546Z,1013.80
2018-11-12T08:17:44.739Z,1013.73
2018-11-12T08:18:44.518Z,1013.78
2018-11-12T08:19:44.490Z,1013.71
2018-11-12T08:20:44.481Z,1013.81
2018-11-12T08:21:44.506Z,1013.82
2018-11-12T08:22:44.440Z,1013.90
2018-11-12T08:23:44.424Z,1013.89
2018-11-12T08:24:44.525Z,1013.89
2018-11-12T08:25:44.393Z,1013.91
2018-11-12T08:26:44.369Z,1013.90
2018-11-12T08:27:44.352Z,1013.86
2018-11-12T08:28:44.335Z,1013.91
2018-11-12T08:29:44.404Z,1013.94
2018-11-12T08:30:44.302Z,1013.98
2018-11-12T08:31:44.280Z,1013.90
2018-11-12T08:32:44.269Z,1013.83
2018-11-12T08:33:44.244Z,1013.83
2018-11-12T08:34:44.229Z,1013.86
2018-11-12T08:35:44.268Z,1013.85
2018-11-12T08:36:44.195Z,1013.82
2018-11-12T08:37:44.174Z,1013.86
2018-11-12T08:38:44.160Z,1013.86
2018-11-12T08:39:44.362Z,1013.84
2018-11-12T08:40:44.238Z,1013.90
2018-11-12T08:41:44.104Z,1013.90
2018-11-12T08:42:44.087Z,1013.87
2018-11-12T08:43:44.067Z,1013.86
2018-11-12T08:44:44.051Z,1013.86
2018-11-12T08:45:44.038Z,1013.86
2018-11-12T08:46:44.017Z,1013.83
2018-11-12T08:47:44.002Z,1013.85
2018-11-12T08:48:43.993Z,1013.85
2018-11-12T08:49:44.128Z,1013.86
2018-11-12T08:50:43.953Z,1013.85
2018-11-12T08:51:43.928Z,1013.86
2018-11-12T08:52:43.911Z,1013.84
2018-11-12T08:53:43.895Z,1013.86
2018-11-12T08:54:43.914Z,1013.83
2018-11-12T08:55:43.904Z,1013.80
2018-11-12T08:56:43.842Z,1013.84
2018-11-12T08:57:43.828Z,1013.84
2018-11-12T08:58:43.804Z,1013.84
2018-11-12T08:59:43.864Z,1013.79
2018-11-12T09:00:43.798Z,1013.79
2018-11-12T09:01:43.754Z,1013.81
2018-11-12T09:02:43.733Z,1013.77
2018-11-12T09:03:43.722Z,1013.77
2018-11-12T09:04:43.701Z,1013.78
2018-11-12T09:05:43.691Z,1013.79
2018-11-12T09:06:43.669Z,1013.82
2018-11-12T09:07:43.648Z,1013.88
2018-11-12T09:08:43.634Z,1013.89
2018-11-12T09:09:43.607Z,1013.96
2018-11-12T09:10:43.596Z,1013.95
2018-11-12T09:11:43.580Z,1013.98
2018-11-12T09:12:43.564Z,1014.04
2018-11-12T09:13:44.064Z,1014.03
2018-11-12T09:14:43.524Z,1014.05
2018-11-12T09:15:43.525Z,1014.05
2018-11-12T09:16:43.487Z,1014.01
2018-11-12T09:17:43.472Z,1014.05
2018-11-12T09:18:43.452Z,1013.96
2018-11-12T09:19:43.435Z,1013.97
2018-11-12T09:20:43.414Z,1013.96
2018-11-12T09:21:43.399Z,1013.94
2018-11-12T09:22:43.387Z,1013.91
2018-11-12T09:23:43.361Z,1013.91
2018-11-12T09:24:43.343Z,1013.94
2018-11-12T09:25:43.345Z,1013.90
2018-11-12T09:26:43.313Z,1013.85
2018-11-12T09:27:43.293Z,1013.89
2018-11-12T09:28:43.279Z,1013.88
2018-11-12T09:29:43.259Z,1013.90
2018-11-12T09:30:44.500Z,1013.92
2018-11-12T09:31:43.223Z,1013.94
2018-11-12T09:32:43.532Z,1013.94
2018-11-12T09:33:43.242Z,1013.97
2018-11-12T09:34:43.171Z,1014.02
2018-11-12T09:35:43.161Z,1013.98
2018-11-12T09:36:43.187Z,1014.04
2018-11-12T09:37:43.128Z,1014.06
2018-11-12T09:38:43.196Z,1014.07
2018-11-12T09:39:43.085Z,1014.04
2018-11-12T09:40:43.080Z,1014.06
2018-11-12T09:41:43.053Z,1014.05
2018-11-12T09:42:43.051Z,1014.07
2018-11-12T09:43:43.013Z,1014.04
2018-11-12T09:44:42.997Z,1014.04
2018-11-12T09:45:43.007Z,1014.03
2018-11-12T09:46:42.964Z,1013.99
2018-11-12T09:47:43.034Z,1013.98
2018-11-12T09:48:42.980Z,1014.00
2018-11-12T09:49:42.916Z,1014.01
2018-11-12T09:50:42.897Z,1014.00
2018-11-12T09:51:42.881Z,1014.01
2018-11-12T09:52:42.867Z,1014.03
2018-11-12T09:53:42.950Z,1013.98
2018-11-12T09:54:42.914Z,1013.99
2018-11-12T09:55:42.858Z,1013.99
2018-11-12T09:56:42.796Z,1013.97
2018-11-12T09:57:42.777Z,1013.98
2018-11-12T09:58:42.759Z,1013.98
2018-11-12T09:59:42.741Z,1013.96
2018-11-12T10:00:43.059Z,1013.98
2018-11-12T10:01:43.722Z,1013.88
2018-11-12T10:02:43.736Z,1013.88
2018-11-12T10:03:44.012Z,1013.89
2018-11-12T10:04:44.167Z,1013.93
2018-11-12T10:05:44.096Z,1013.94
2018-11-12T10:06:44.284Z,1013.92
2018-11-12T10:07:44.754Z,1013.90
2018-11-12T10:08:44.500Z,1013.89
2018-11-12T10:09:45.031Z,1013.89
2018-11-12T10:10:44.294Z,1013.83
2018-11-12T10:11:45.053Z,1013.91
2018-11-12T10:12:45.661Z,1013.89
2018-11-12T10:13:44.979Z,1013.89
2018-11-12T10:14:45.082Z,1013.93
2018-11-12T10:15:45.802Z,1013.85
2018-11-12T10:16:44.659Z,1013.81
2018-11-12T10:17:44.250Z,1013.80
2018-11-12T10:18:42.423Z,1013.79
2018-11-12T10:19:42.527Z,1013.82
2018-11-12T10:20:42.390Z,1013.80
2018-11-12T10:21:42.372Z,1013.77
2018-11-12T10:22:42.362Z,1013.76
2018-11-12T10:23:42.344Z,1013.73
2018-11-12T10:24:42.326Z,1013.70
2018-11-12T10:25:42.310Z,1013.70
2018-11-12T10:26:42.295Z,1013.68
2018-11-12T10:27:42.282Z,1013.62
2018-11-12T10:28:42.263Z,1013.62
2018-11-12T10:29:42.259Z,1013.64
2018-11-12T10:30:42.232Z,1013.61
2018-11-12T10:31:42.223Z,1013.62
2018-11-12T10:32:42.203Z,1013.66
2018-11-12T10:33:42.234Z,1013.68
2018-11-12T10:34:42.172Z,1013.64
2018-11-12T10:35:42.157Z,1013.68
2018-11-12T10:36:42.137Z,1013.70
2018-11-12T10:37:42.120Z,1013.68
2018-11-12T10:38:42.112Z,1013.66
2018-11-12T10:39:42.125Z,1013.62
2018-11-12T10:40:42.145Z,1013.64
2018-11-12T10:41:42.069Z,1013.63
2018-11-12T10:42:42.096Z,1013.64
2018-11-12T10:43:42.031Z,1013.65
2018-11-12T10:44:42.015Z,1013.65
2018-11-12T10:45:42.006Z,1013.64
2018-11-12T10:46:41.988Z,1013.62
2018-11-12T10:47:42.024Z,1013.60
2018-11-12T10:48:41.956Z,1013.51
2018-11-12T10:49:41.943Z,1013.56
2018-11-12T10:50:41.924Z,1013.55
2018-11-12T10:51:41.909Z,1013.56
2018-11-12T10:52:41.894Z,1013.57
2018-11-12T10:53:49.846Z,1013.60
2018-11-12T10:54:41.977Z,1013.57
2018-11-12T10:55:42.021Z,1013.54
2018-11-12T10:56:41.830Z,1013.54
2018-11-12T10:57:41.816Z,1013.53
2018-11-12T10:58:41.804Z,1013.57
2018-11-12T10:59:41.816Z,1013.61
2018-11-12T11:00:41.809Z,1013.61
2018-11-12T11:01:41.754Z,1013.60
2018-11-12T11:02:41.742Z,1013.60
2018-11-12T11:03:41.730Z,1013.58
2018-11-12T11:04:41.709Z,1013.56
2018-11-12T11:05:41.693Z,1013.58
2018-11-12T11:06:41.677Z,1013.52
2018-11-12T11:07:41.665Z,1013.53
2018-11-12T11:08:41.642Z,1013.46
2018-11-12T11:09:41.629Z,1013.45
2018-11-12T11:10:41.616Z,1013.41
2018-11-12T11:11:41.598Z,1013.39
2018-11-12T11:12:41.581Z,1013.40
2018-11-12T11:13:41.590Z,1013.36
2018-11-12T11:14:41.556Z,1013.33
2018-11-12T11:15:41.607Z,1013.34
2018-11-12T11:16:41.521Z,1013.31
2018-11-12T11:17:41.515Z,1013.34
2018-11-12T11:18:41.492Z,1013.27
2018-11-12T11:19:41.521Z,1013.29
2018-11-12T11:20:41.466Z,1013.35
2018-11-12T11:21:41.448Z,1013.40
2018-11-12T11:22:41.430Z,1013.34
2018-11-12T11:23:41.410Z,1013.34
2018-11-12T11:24:41.398Z,1013.36
2018-11-12T11:25:41.404Z,1013.43
2018-11-12T11:26:41.426Z,1013.30
2018-11-12T11:27:41.348Z,1013.35
2018-11-12T11:28:41.330Z,1013.29
2018-11-12T11:29:41.320Z,1013.28
2018-11-12T11:30:41.299Z,1013.34
2018-11-12T11:31:41.298Z,1013.26
2018-11-12T11:32:41.270Z,1013.30
2018-11-12T11:33:41.253Z,1013.29
2018-11-12T11:34:41.239Z,1013.25
2018-11-12T11:35:41.223Z,1013.20
2018-11-12T11:36:41.206Z,1013.20
2018-11-12T11:37:41.198Z,1013.12
2018-11-12T11:38:41.180Z,1013.04
2018-11-12T11:39:41.157Z,1013.02
2018-11-12T11:40:41.207Z,1012.94
2018-11-12T11:41:41.126Z,1012.94
2018-11-12T11:42:41.105Z,1012.97
2018-11-12T11:43:41.098Z,1012.94
2018-11-12T11:44:41.082Z,1013.04
2018-11-12T11:45:41.063Z,1012.93
2018-11-12T11:46:41.045Z,1012.94
2018-11-12T11:47:41.152Z,1012.97
2018-11-12T11:48:41.069Z,1012.93
2018-11-12T11:49:40.998Z,1013.00
2018-11-12T11:50:41.035Z,1012.95
2018-11-12T11:51:40.999Z,1012.98
2018-11-12T11:52:40.947Z,1012.93
2018-11-12T11:53:40.930Z,1012.99
2018-11-12T11:54:40.913Z,1013.01
2018-11-12T11:55:40.899Z,1012.95
2018-11-12T11:56:40.980Z,1012.92
2018-11-12T11:57:41.068Z,1012.90
2018-11-12T11:58:40.856Z,1012.92
2018-11-12T11:59:40.837Z,1012.96
2018-11-12T12:00:40.812Z,1012.97
2018-11-12T12:01:40.854Z,1012.98
2018-11-12T12:02:40.827Z,1012.95
2018-11-12T12:03:40.766Z,1012.98
2018-11-12T12:04:40.744Z,1012.97
2018-11-12T12:05:40.833Z,1012.93